sensor_id;sensor_type;location;lat;lon;timestamp;P1;durP1;ratioP1;P2;durP2;ratioP2
84172;SDS011;74302;40.122;18.310;2024-02-26T20:55:05;4.50;;;2.60;;
84172;SDS011;74302;40.122;18.310;2024-02-26T20:56:50;6.28;;;3.05;;
84172;SDS011;74302;40.122;18.310;2024-02-26T20:58:33;4.00;;;2.67;;
84172;SDS011;74302;40.122;18.310;2024-02-26T21:00:18;6.25;;;3.75;;
84172;SDS011;74302;40.122;18.310;2024-02-26T21:02:02;3.55;;;2.55;;
84172;SDS011;74302;40.122;18.310;2024-02-26T21:03:46;4.15;;;2.38;;
84172;SDS011;74302;40.122;18.310;2024-02-26T21:05:30;5.07;;;2.53;;
84172;SDS011;74302;40.122;18.310;2024-02-26T21:07:13;9.38;;;3.35;;
84172;SDS011;74302;40.122;18.310;2024-02-26T21:08:58;6.57;;;3.83;;
84172;SDS011;74302;40.122;18.310;2024-02-26T21:12:31;5.78;;;2.95;;
84172;SDS011;74302;40.122;18.310;2024-02-26T21:14:15;5.70;;;3.35;;
84172;SDS011;74302;40.122;18.310;2024-02-26T21:17:42;10.10;;;5.68;;
84172;SDS011;74302;40.122;18.310;2024-02-26T21:21:10;5.90;;;3.55;;
84172;SDS011;74302;40.122;18.310;2024-02-26T21:22:54;9.82;;;2.75;;
84172;SDS011;74302;40.122;18.310;2024-02-26T21:24:38;6.10;;;3.22;;
84172;SDS011;74302;40.122;18.310;2024-02-26T21:26:23;6.10;;;3.78;;
84172;SDS011;74302;40.122;18.310;2024-02-26T21:28:07;6.88;;;3.60;;
84172;SDS011;74302;40.122;18.310;2024-02-26T21:29:52;4.55;;;2.88;;
84172;SDS011;74302;40.122;18.310;2024-02-26T21:31:36;4.47;;;3.38;;
84172;SDS011;74302;40.122;18.310;2024-02-26T21:33:20;3.50;;;3.13;;
84172;SDS011;74302;40.122;18.310;2024-02-26T21:35:05;5.25;;;3.25;;
84172;SDS011;74302;40.122;18.310;2024-02-26T21:36:49;10.43;;;5.22;;
84172;SDS011;74302;40.122;18.310;2024-02-26T21:38:34;5.22;;;3.45;;
84172;SDS011;74302;40.122;18.310;2024-02-26T21:40:20;6.53;;;3.65;;
84172;SDS011;74302;40.122;18.310;2024-02-26T21:42:05;6.70;;;4.15;;
84172;SDS011;74302;40.122;18.310;2024-02-26T21:43:49;6.75;;;3.10;;
84172;SDS011;74302;40.122;18.310;2024-02-26T21:45:33;5.20;;;3.78;;
84172;SDS011;74302;40.122;18.310;2024-02-26T21:47:19;6.97;;;3.45;;
84172;SDS011;74302;40.122;18.310;2024-02-26T21:49:03;6.43;;;3.42;;
84172;SDS011;74302;40.122;18.310;2024-02-26T21:50:47;9.25;;;4.50;;
84172;SDS011;74302;40.122;18.310;2024-02-26T21:52:31;5.63;;;3.53;;
84172;SDS011;74302;40.122;18.310;2024-02-26T21:54:15;5.80;;;3.22;;
84172;SDS011;74302;40.122;18.310;2024-02-26T21:55:59;7.25;;;3.70;;
84172;SDS011;74302;40.122;18.310;2024-02-26T21:57:44;9.32;;;3.42;;
84172;SDS011;74302;40.122;18.310;2024-02-26T21:59:28;3.60;;;2.78;;
84172;SDS011;74302;40.122;18.310;2024-02-26T22:01:12;5.93;;;2.42;;
84172;SDS011;74302;40.122;18.310;2024-02-26T22:02:55;7.10;;;2.85;;
84172;SDS011;74302;40.122;18.310;2024-02-26T22:04:39;6.97;;;3.60;;
84172;SDS011;74302;40.122;18.310;2024-02-26T22:06:23;6.82;;;3.97;;
84172;SDS011;74302;40.122;18.310;2024-02-26T22:08:07;4.57;;;2.85;;
84172;SDS011;74302;40.122;18.310;2024-02-26T22:09:50;6.32;;;4.05;;
84172;SDS011;74302;40.122;18.310;2024-02-26T22:11:34;8.18;;;4.47;;
84172;SDS011;74302;40.122;18.310;2024-02-26T22:13:19;5.57;;;3.40;;
84172;SDS011;74302;40.122;18.310;2024-02-26T22:15:03;7.47;;;4.00;;
84172;SDS011;74302;40.122;18.310;2024-02-26T22:16:47;5.40;;;3.25;;
84172;SDS011;74302;40.122;18.310;2024-02-26T22:18:31;6.32;;;3.33;;
84172;SDS011;74302;40.122;18.310;2024-02-26T22:20:14;6.50;;;4.40;;
84172;SDS011;74302;40.122;18.310;2024-02-26T22:23:41;5.07;;;3.67;;
84172;SDS011;74302;40.122;18.310;2024-02-26T22:25:25;8.75;;;5.28;;
84172;SDS011;74302;40.122;18.310;2024-02-26T22:27:10;6.78;;;3.83;;
84172;SDS011;74302;40.122;18.310;2024-02-26T22:28:56;5.32;;;2.95;;
84172;SDS011;74302;40.122;18.310;2024-02-26T22:30:39;9.45;;;5.53;;
84172;SDS011;74302;40.122;18.310;2024-02-26T22:32:23;9.40;;;5.20;;
84172;SDS011;74302;40.122;18.310;2024-02-26T22:34:07;8.60;;;5.35;;
84172;SDS011;74302;40.122;18.310;2024-02-26T22:35:51;11.38;;;6.38;;
84172;SDS011;74302;40.122;18.310;2024-02-26T22:37:34;7.78;;;5.45;;
84172;SDS011;74302;40.122;18.310;2024-02-26T22:39:20;6.82;;;5.20;;
84172;SDS011;74302;40.122;18.310;2024-02-26T22:41:04;23.38;;;6.03;;
84172;SDS011;74302;40.122;18.310;2024-02-26T22:42:48;11.80;;;6.10;;
84172;SDS011;74302;40.122;18.310;2024-02-26T22:44:39;8.30;;;5.35;;
84172;SDS011;74302;40.122;18.310;2024-02-26T22:46:23;11.65;;;6.07;;
84172;SDS011;74302;40.122;18.310;2024-02-26T22:48:06;7.97;;;4.55;;
84172;SDS011;74302;40.122;18.310;2024-02-26T22:49:51;14.10;;;6.28;;
84172;SDS011;74302;40.122;18.310;2024-02-26T22:51:34;17.13;;;5.68;;
84172;SDS011;74302;40.122;18.310;2024-02-26T22:55:06;10.02;;;6.63;;
84172;SDS011;74302;40.122;18.310;2024-02-26T22:56:49;9.55;;;6.40;;
84172;SDS011;74302;40.122;18.310;2024-02-26T22:58:33;11.65;;;6.45;;
84172;SDS011;74302;40.122;18.310;2024-02-26T23:00:18;12.97;;;6.50;;
84172;SDS011;74302;40.122;18.310;2024-02-26T23:02:13;9.35;;;5.82;;
84172;SDS011;74302;40.122;18.310;2024-02-26T23:03:57;13.93;;;5.03;;
84172;SDS011;74302;40.122;18.310;2024-02-26T23:05:41;13.68;;;5.72;;
84172;SDS011;74302;40.122;18.310;2024-02-26T23:07:25;21.80;;;6.82;;
84172;SDS011;74302;40.122;18.310;2024-02-26T23:09:08;13.15;;;6.72;;
84172;SDS011;74302;40.122;18.310;2024-02-26T23:10:52;11.98;;;7.93;;
84172;SDS011;74302;40.122;18.310;2024-02-26T23:12:36;12.18;;;6.25;;
84172;SDS011;74302;40.122;18.310;2024-02-26T23:14:20;9.35;;;5.80;;
84172;SDS011;74302;40.122;18.310;2024-02-26T23:16:05;10.25;;;5.97;;
84172;SDS011;74302;40.122;18.310;2024-02-26T23:17:49;7.82;;;5.45;;
84172;SDS011;74302;40.122;18.310;2024-02-26T23:19:35;8.75;;;5.97;;
84172;SDS011;74302;40.122;18.310;2024-02-26T23:21:20;9.25;;;6.47;;
84172;SDS011;74302;40.122;18.310;2024-02-26T23:23:04;7.80;;;5.97;;
84172;SDS011;74302;40.122;18.310;2024-02-26T23:24:48;7.82;;;5.82;;
84172;SDS011;74302;40.122;18.310;2024-02-26T23:26:31;10.40;;;5.50;;
84172;SDS011;74302;40.122;18.310;2024-02-26T23:28:15;9.38;;;5.78;;
84172;SDS011;74302;40.122;18.310;2024-02-26T23:29:59;9.18;;;5.38;;
84172;SDS011;74302;40.122;18.310;2024-02-26T23:31:44;16.58;;;6.30;;
84172;SDS011;74302;40.122;18.310;2024-02-26T23:33:28;7.63;;;5.38;;
84172;SDS011;74302;40.122;18.310;2024-02-26T23:35:12;8.20;;;5.60;;
84172;SDS011;74302;40.122;18.310;2024-02-26T23:36:55;9.75;;;5.35;;
84172;SDS011;74302;40.122;18.310;2024-02-26T23:38:40;11.48;;;6.88;;
84172;SDS011;74302;40.122;18.310;2024-02-26T23:40:24;11.60;;;5.88;;
84172;SDS011;74302;40.122;18.310;2024-02-26T23:42:08;10.73;;;7.68;;
84172;SDS011;74302;40.122;18.310;2024-02-26T23:45:36;9.75;;;6.60;;
84172;SDS011;74302;40.122;18.310;2024-02-26T23:47:23;9.15;;;5.75;;
84172;SDS011;74302;40.122;18.310;2024-02-26T23:49:07;9.02;;;4.70;;
84172;SDS011;74302;40.122;18.310;2024-02-26T23:50:52;12.18;;;5.07;;
84172;SDS011;74302;40.122;18.310;2024-02-26T23:52:37;8.80;;;6.72;;
84172;SDS011;74302;40.122;18.310;2024-02-26T23:54:20;13.75;;;7.22;;
84172;SDS011;74302;40.122;18.310;2024-02-26T23:57:49;10.15;;;5.20;;
